createdAt,value
2022-08-17T00:02:25.350Z,8.50
2022-08-17T00:04:55.120Z,8.43
2022-08-17T00:07:22.752Z,9.60
2022-08-17T00:09:50.086Z,8.75
2022-08-17T00:12:41.140Z,9.13
2022-08-17T00:15:05.429Z,8.23
2022-08-17T00:17:32.237Z,7.43
2022-08-17T00:20:00.324Z,7.80
2022-08-17T00:22:33.854Z,10.05
2022-08-17T00:25:05.298Z,9.73
2022-08-17T00:27:32.254Z,10.20
2022-08-17T00:29:59.267Z,9.23
2022-08-17T00:33:13.797Z,9.90
2022-08-17T00:35:18.341Z,9.13
2022-08-17T00:37:45.253Z,9.18
2022-08-17T00:40:15.155Z,9.20
2022-08-17T00:42:43.814Z,10.40
2022-08-17T00:45:13.215Z,9.20
2022-08-17T00:47:41.544Z,9.82
2022-08-17T00:50:12.268Z,10.23
2022-08-17T00:52:54.898Z,8.38
2022-08-17T00:55:23.999Z,9.25
2022-08-17T00:57:56.567Z,9.43
2022-08-17T01:00:28.798Z,9.93
2022-08-17T01:03:02.102Z,10.05
2022-08-17T01:05:32.400Z,8.95
2022-08-17T01:08:01.534Z,8.80
2022-08-17T01:10:58.624Z,9.10
2022-08-17T01:13:27.788Z,9.85
2022-08-17T01:16:09.226Z,8.98
2022-08-17T01:18:36.572Z,9.40
2022-08-17T01:21:48.641Z,8.52
2022-08-17T01:24:15.906Z,8.68
2022-08-17T01:26:45.967Z,9.60
2022-08-17T01:29:13.742Z,9.73
2022-08-17T01:32:03.701Z,9.05
2022-08-17T01:34:36.835Z,9.85
2022-08-17T01:37:13.216Z,9.52
2022-08-17T01:39:54.924Z,9.23
2022-08-17T01:42:36.513Z,9.63
2022-08-17T01:45:11.227Z,9.95
2022-08-17T01:47:38.267Z,10.23
2022-08-17T01:50:15.884Z,8.75
2022-08-17T01:52:45.325Z,9.75
2022-08-17T01:55:15.754Z,8.88
2022-08-17T01:57:45.519Z,9.65
2022-08-17T02:00:14.035Z,10.38
2022-08-17T02:02:41.579Z,10.10
2022-08-17T02:05:08.874Z,9.48
2022-08-17T02:08:00.049Z,10.18
2022-08-17T02:10:23.897Z,9.25
2022-08-17T02:13:02.169Z,8.82
2022-08-17T02:15:29.211Z,8.95
2022-08-17T02:17:56.031Z,8.98
2022-08-17T02:20:41.386Z,9.82
2022-08-17T02:23:11.841Z,9.50
2022-08-17T02:25:42.941Z,9.77
2022-08-17T02:28:10.783Z,8.52
2022-08-17T02:30:59.370Z,8.65
2022-08-17T02:33:24.709Z,10.25
2022-08-17T02:36:10.033Z,8.93
2022-08-17T02:38:37.626Z,8.90
2022-08-17T02:41:04.620Z,9.43
2022-08-17T02:43:31.917Z,8.32
2022-08-17T02:45:58.718Z,8.60
2022-08-17T02:48:30.450Z,9.25
2022-08-17T02:50:59.334Z,9.32
2022-08-17T02:53:26.697Z,10.18
2022-08-17T02:55:53.889Z,8.75
2022-08-17T02:58:34.540Z,7.85
2022-08-17T03:01:06.997Z,7.75
2022-08-17T03:03:34.868Z,8.25
2022-08-17T03:06:03.300Z,8.00
2022-08-17T03:08:30.484Z,8.70
2022-08-17T03:10:57.668Z,8.43
2022-08-17T03:13:24.529Z,8.88
2022-08-17T03:15:51.532Z,7.80
2022-08-17T03:18:25.426Z,9.25
2022-08-17T03:20:55.573Z,8.70
2022-08-17T03:23:23.805Z,8.25
2022-08-17T03:25:53.343Z,8.23
2022-08-17T03:28:21.193Z,8.88
2022-08-17T03:30:48.199Z,8.38
2022-08-17T03:33:16.156Z,8.13
2022-08-17T03:35:43.161Z,8.52
2022-08-17T03:38:12.459Z,8.52
2022-08-17T03:40:56.328Z,8.25
2022-08-17T03:43:30.388Z,9.52
2022-08-17T03:46:28.453Z,8.65
2022-08-17T03:49:23.173Z,8.50
2022-08-17T03:52:09.054Z,9.35
2022-08-17T03:54:55.069Z,8.00
2022-08-17T03:57:21.893Z,10.32
2022-08-17T03:59:49.465Z,9.50
2022-08-17T04:02:24.127Z,9.82
2022-08-17T04:04:52.151Z,9.60
2022-08-17T04:07:24.669Z,10.70
2022-08-17T04:09:51.489Z,10.57
2022-08-17T04:12:20.907Z,9.80
2022-08-17T04:14:51.713Z,10.70
2022-08-17T04:17:23.058Z,10.15
2022-08-17T04:19:50.685Z,9.77
2022-08-17T04:22:32.283Z,9.52
2022-08-17T04:25:16.679Z,9.45
2022-08-17T04:27:43.570Z,10.50
2022-08-17T04:30:11.070Z,10.40
2022-08-17T04:33:14.013Z,9.52
2022-08-17T04:35:45.591Z,10.88
2022-08-17T04:38:15.254Z,10.90
2022-08-17T04:41:01.718Z,9.93
2022-08-17T04:43:30.962Z,10.75
2022-08-17T04:46:00.394Z,9.85
2022-08-17T04:48:40.060Z,10.65
2022-08-17T04:51:14.003Z,9.65
2022-08-17T04:53:42.933Z,8.93
2022-08-17T04:56:15.903Z,10.68
2022-08-17T04:58:46.265Z,11.80
2022-08-17T05:01:14.015Z,10.18
2022-08-17T05:03:41.915Z,10.45
2022-08-17T05:06:08.936Z,11.27
2022-08-17T05:08:36.107Z,10.52
2022-08-17T05:11:03.105Z,10.77
2022-08-17T05:13:29.976Z,10.88
2022-08-17T05:16:01.165Z,10.48
2022-08-17T05:18:29.602Z,9.73
2022-08-17T05:20:57.245Z,9.18
2022-08-17T05:23:25.667Z,10.32
2022-08-17T05:25:58.174Z,10.02
2022-08-17T05:28:29.586Z,9.75
2022-08-17T05:30:58.206Z,12.15
2022-08-17T05:33:31.736Z,11.13
2022-08-17T05:35:59.709Z,9.70
2022-08-17T05:38:29.248Z,11.50
2022-08-17T05:40:57.013Z,9.38
2022-08-17T05:43:30.485Z,9.13
2022-08-17T05:46:10.650Z,9.70
2022-08-17T05:48:49.920Z,9.35
2022-08-17T05:51:43.269Z,9.70
2022-08-17T05:54:35.170Z,9.93
2022-08-17T05:57:26.874Z,10.02
2022-08-17T06:00:12.654Z,10.43
2022-08-17T06:03:18.251Z,9.35
2022-08-17T06:06:22.710Z,8.93
2022-08-17T06:09:09.953Z,8.40
2022-08-17T06:12:14.371Z,8.23
2022-08-17T06:15:08.116Z,8.82
2022-08-17T06:17:35.601Z,8.68
2022-08-17T06:20:08.819Z,9.65
2022-08-17T06:22:48.742Z,9.05
2022-08-17T06:25:22.241Z,10.43
2022-08-17T06:27:53.677Z,9.50
2022-08-17T06:30:28.283Z,8.90
2022-08-17T06:35:42.323Z,9.63
2022-08-17T06:38:34.064Z,9.05
2022-08-17T06:41:38.152Z,9.57
2022-08-17T06:44:49.900Z,8.80
2022-08-17T06:47:36.216Z,8.75
2022-08-17T06:50:14.535Z,8.45
2022-08-17T06:52:59.500Z,8.60
2022-08-17T06:55:45.137Z,8.38
2022-08-17T06:58:16.132Z,9.30
2022-08-17T07:00:47.145Z,8.80
2022-08-17T07:03:21.083Z,8.30
2022-08-17T07:05:53.401Z,8.90
2022-08-17T07:08:59.948Z,8.43
2022-08-17T07:11:33.975Z,8.07
2022-08-17T07:14:23.764Z,7.65
2022-08-17T07:16:56.456Z,6.85
2022-08-17T07:19:27.045Z,8.90
2022-08-17T07:22:57.479Z,7.65
2022-08-17T07:25:18.700Z,7.90
2022-08-17T07:27:57.423Z,6.97
2022-08-17T07:30:25.964Z,6.88
2022-08-17T07:33:20.012Z,7.03
2022-08-17T07:35:48.409Z,7.23
2022-08-17T07:38:32.824Z,6.78
2022-08-17T07:41:08.486Z,8.05
2022-08-17T07:43:41.153Z,6.90
2022-08-17T07:46:54.042Z,6.53
2022-08-17T07:49:37.191Z,5.50
2022-08-17T07:52:50.313Z,6.10
2022-08-17T07:55:31.360Z,5.03
2022-08-17T07:58:00.121Z,4.90
2022-08-17T08:00:32.229Z,5.00
2022-08-17T08:03:34.056Z,4.82
2022-08-17T08:06:03.014Z,5.30
2022-08-17T08:08:43.860Z,5.15
2022-08-17T08:11:15.545Z,6.72
2022-08-17T08:13:45.711Z,4.30
2022-08-17T08:16:17.529Z,7.63
2022-08-17T08:18:55.676Z,6.03
2022-08-17T08:21:47.319Z,4.55
2022-08-17T08:24:33.828Z,5.38
2022-08-17T08:27:30.392Z,6.45
2022-08-17T08:30:16.197Z,5.22
2022-08-17T08:33:12.612Z,5.43
2022-08-17T08:36:02.577Z,4.85
2022-08-17T08:38:56.632Z,4.80
2022-08-17T08:41:50.956Z,6.32
2022-08-17T08:44:59.926Z,5.18
2022-08-17T08:47:55.300Z,4.85
2022-08-17T08:50:38.784Z,4.70
2022-08-17T08:53:48.989Z,5.80
2022-08-17T08:57:28.007Z,6.18
2022-08-17T09:00:15.151Z,4.38
2022-08-17T09:03:03.075Z,5.97
2022-08-17T09:05:57.670Z,4.32
2022-08-17T09:08:55.664Z,4.07
2022-08-17T09:12:02.931Z,3.45
2022-08-17T09:14:51.796Z,5.72
2022-08-17T09:17:33.213Z,5.80
2022-08-17T09:20:05.922Z,5.13
2022-08-17T09:22:44.061Z,7.53
2022-08-17T09:25:17.412Z,5.25
2022-08-17T09:28:00.757Z,4.80
2022-08-17T09:30:36.341Z,5.18
2022-08-17T09:33:09.046Z,5.05
2022-08-17T09:35:44.830Z,6.97
2022-08-17T09:38:30.468Z,7.03
2022-08-17T09:40:59.233Z,6.30
2022-08-17T09:43:38.469Z,5.75
2022-08-17T09:46:23.696Z,4.95
2022-08-17T09:49:03.298Z,5.95
2022-08-17T09:51:36.064Z,4.03
2022-08-17T09:54:34.828Z,4.35
2022-08-17T09:57:25.885Z,4.38
2022-08-17T10:00:13.460Z,4.70
2022-08-17T10:03:01.610Z,4.70
2022-08-17T10:06:02.787Z,3.90
2022-08-17T10:12:17.630Z,3.55
2022-08-17T10:15:13.406Z,4.97
2022-08-17T10:18:19.055Z,3.90
2022-08-17T10:21:28.498Z,5.03
2022-08-17T10:24:28.109Z,4.15
2022-08-17T10:26:57.838Z,4.30
2022-08-17T10:29:50.471Z,4.57
2022-08-17T10:32:46.084Z,4.35
2022-08-17T10:35:40.861Z,3.92
2022-08-17T10:41:31.220Z,3.97
2022-08-17T10:44:36.935Z,4.25
2022-08-17T10:47:15.002Z,3.80
2022-08-17T10:49:47.967Z,4.97
2022-08-17T10:52:24.848Z,4.82
2022-08-17T10:54:58.072Z,5.07
2022-08-17T10:57:31.861Z,5.78
2022-08-17T11:00:03.792Z,5.38
2022-08-17T11:02:52.358Z,4.43
2022-08-17T11:05:27.520Z,5.32
2022-08-17T11:08:23.161Z,6.10
2022-08-17T11:10:58.896Z,6.22
2022-08-17T11:13:54.598Z,6.55
2022-08-17T11:17:02.065Z,5.43
2022-08-17T11:20:12.505Z,5.85
2022-08-17T11:23:21.237Z,6.15
2022-08-17T11:25:57.786Z,6.03
2022-08-17T11:28:36.858Z,5.72
2022-08-17T11:31:10.238Z,5.18
2022-08-17T11:33:44.629Z,7.35
2022-08-17T11:36:35.212Z,5.90
2022-08-17T11:39:31.639Z,7.28
2022-08-17T11:42:30.046Z,7.35
2022-08-17T11:45:01.288Z,7.68
2022-08-17T11:51:33.783Z,7.85
2022-08-17T11:54:32.902Z,9.13
2022-08-17T11:56:54.032Z,8.02
2022-08-17T11:59:44.888Z,8.23
2022-08-17T12:02:29.914Z,7.38
2022-08-17T12:05:25.334Z,8.27
2022-08-17T12:08:07.908Z,9.07
2022-08-17T12:10:40.403Z,9.38
2022-08-17T12:13:15.787Z,8.02
2022-08-17T12:15:50.435Z,9.52
2022-08-17T12:18:24.480Z,7.45
2022-08-17T12:21:26.296Z,9.15
2022-08-17T12:24:10.107Z,7.97
2022-08-17T12:26:38.277Z,9.53
2022-08-17T12:29:18.027Z,8.77
2022-08-17T12:31:59.004Z,9.52
2022-08-17T12:34:45.974Z,10.25
2022-08-17T12:37:31.018Z,11.07
2022-08-17T12:40:22.689Z,10.88
2022-08-17T12:43:02.356Z,8.85
2022-08-17T12:45:33.624Z,9.30
2022-08-17T12:48:07.895Z,10.85
2022-08-17T12:53:16.948Z,11.90
2022-08-17T12:55:44.522Z,11.65
2022-08-17T12:58:16.856Z,11.57
2022-08-17T13:00:56.753Z,10.80
2022-08-17T13:03:27.826Z,13.13
2022-08-17T13:06:11.027Z,10.68
2022-08-17T13:08:47.899Z,12.80
2022-08-17T13:11:14.676Z,13.18
2022-08-17T13:13:44.593Z,14.18
2022-08-17T13:16:17.167Z,13.55
2022-08-17T13:19:08.175Z,13.15
2022-08-17T13:21:37.821Z,13.35
2022-08-17T13:24:21.105Z,13.02
2022-08-17T13:26:54.534Z,13.43
2022-08-17T13:29:53.642Z,13.17
2022-08-17T13:32:43.587Z,12.75
2022-08-17T13:35:33.438Z,10.95
2022-08-17T13:38:16.658Z,12.88
2022-08-17T13:40:53.059Z,10.88
2022-08-17T13:43:44.582Z,11.45
2022-08-17T13:46:32.122Z,10.98
2022-08-17T13:49:11.693Z,11.35
2022-08-17T13:51:47.161Z,11.60
2022-08-17T13:54:41.527Z,11.00
2022-08-17T13:57:25.476Z,8.68
2022-08-17T13:59:56.696Z,8.75
2022-08-17T14:02:28.322Z,7.47
2022-08-17T14:04:56.266Z,8.40
2022-08-17T14:07:31.309Z,9.68
2022-08-17T14:10:15.095Z,8.23
2022-08-17T14:12:44.756Z,9.27
2022-08-17T14:15:15.010Z,8.30
2022-08-17T14:17:42.032Z,9.35
2022-08-17T14:20:12.074Z,8.75
2022-08-17T14:22:43.767Z,8.73
2022-08-17T14:25:14.827Z,7.72
2022-08-17T14:27:52.128Z,7.88
2022-08-17T14:30:26.697Z,8.70
2022-08-17T14:32:58.008Z,9.93
2022-08-17T14:35:27.782Z,11.68
2022-08-17T14:37:55.078Z,9.05
2022-08-17T14:40:24.832Z,10.65
2022-08-17T14:42:55.146Z,11.30
2022-08-17T14:45:31.596Z,18.33
2022-08-17T14:48:01.357Z,11.93
2022-08-17T14:50:28.220Z,10.55
2022-08-17T14:52:57.712Z,10.77
2022-08-17T14:55:26.135Z,10.98
2022-08-17T14:57:53.156Z,3.75
2022-08-17T15:00:20.204Z,2.38
2022-08-17T15:02:56.393Z,2.42
2022-08-17T15:05:26.075Z,3.00
2022-08-17T15:07:53.661Z,2.92
2022-08-17T15:10:20.751Z,2.45
2022-08-17T15:12:48.344Z,1.92
2022-08-17T15:15:17.533Z,1.85
2022-08-17T15:17:45.888Z,2.15
2022-08-17T15:20:16.013Z,1.70
2022-08-17T15:22:44.987Z,1.55
2022-08-17T15:25:13.893Z,1.73
2022-08-17T15:27:41.274Z,1.83
2022-08-17T15:30:09.985Z,1.85
2022-08-17T15:32:41.022Z,2.10
2022-08-17T15:35:19.448Z,2.05
2022-08-17T15:37:54.005Z,2.10
2022-08-17T15:40:21.073Z,2.35
2022-08-17T15:42:47.946Z,2.10
2022-08-17T15:45:16.798Z,1.75
2022-08-17T15:47:43.709Z,2.45
2022-08-17T15:50:10.888Z,1.85
2022-08-17T15:52:40.419Z,1.80
2022-08-17T15:55:11.482Z,2.50
2022-08-17T15:57:38.728Z,2.47
2022-08-17T16:00:08.280Z,2.20
2022-08-17T16:03:45.875Z,1.73
2022-08-17T16:05:25.257Z,1.63
2022-08-17T16:07:53.577Z,1.95
2022-08-17T16:10:21.873Z,1.45
2022-08-17T16:13:01.921Z,1.42
2022-08-17T16:15:31.497Z,1.52
2022-08-17T16:17:58.611Z,1.50
2022-08-17T16:20:25.906Z,1.80
2022-08-17T16:22:54.201Z,1.52
2022-08-17T16:25:49.008Z,1.52
2022-08-17T16:28:16.478Z,1.83
2022-08-17T16:30:43.403Z,1.40
2022-08-17T16:33:11.667Z,1.60
2022-08-17T16:35:39.552Z,1.98
2022-08-17T16:38:07.081Z,2.15
2022-08-17T16:40:36.212Z,1.80
2022-08-17T16:43:04.262Z,1.63
2022-08-17T16:45:36.835Z,1.45
2022-08-17T16:48:04.418Z,1.98
2022-08-17T16:50:32.301Z,1.58
2022-08-17T16:53:10.343Z,1.67
2022-08-17T16:55:37.816Z,1.75
2022-08-17T16:58:06.333Z,1.65
2022-08-17T17:00:36.552Z,1.33
2022-08-17T17:03:19.538Z,1.98
2022-08-17T17:06:07.799Z,1.30
2022-08-17T17:08:34.742Z,1.40
2022-08-17T17:11:12.093Z,1.42
2022-08-17T17:13:40.868Z,1.80
2022-08-17T17:16:31.802Z,1.90
2022-08-17T17:19:36.308Z,1.73
2022-08-17T17:22:20.297Z,2.05
2022-08-17T17:25:13.584Z,2.25
2022-08-17T17:27:43.636Z,1.60
2022-08-17T17:30:34.453Z,1.10
2022-08-17T17:33:10.948Z,1.33
2022-08-17T17:35:44.816Z,1.52
2022-08-17T17:38:19.939Z,1.45
2022-08-17T17:40:51.033Z,1.38
2022-08-17T17:43:38.481Z,1.40
2022-08-17T17:46:27.165Z,1.17
2022-08-17T17:48:57.113Z,1.20
2022-08-17T17:52:06.928Z,1.38
2022-08-17T17:54:39.330Z,1.33
2022-08-17T17:57:21.320Z,1.25
2022-08-17T18:00:16.510Z,1.10
2022-08-17T18:05:51.538Z,1.35
2022-08-17T18:08:35.325Z,1.23
2022-08-17T18:11:39.888Z,1.27
2022-08-17T18:14:30.020Z,1.58
2022-08-17T18:16:58.996Z,1.60
2022-08-17T18:19:28.243Z,1.50
2022-08-17T18:22:02.224Z,1.50
2022-08-17T18:24:39.241Z,1.85
2022-08-17T18:27:19.451Z,1.80
2022-08-17T18:29:49.788Z,2.10
2022-08-17T18:32:36.622Z,2.00
2022-08-17T18:35:27.764Z,1.80
2022-08-17T18:38:20.526Z,2.03
2022-08-17T18:41:21.301Z,1.80
2022-08-17T18:44:31.185Z,2.08
2022-08-17T18:47:13.623Z,1.80
2022-08-17T18:50:11.002Z,1.40
2022-08-17T18:52:37.889Z,1.48
2022-08-17T18:55:14.123Z,1.60
2022-08-17T18:57:54.897Z,1.73
2022-08-17T19:00:40.271Z,2.10
2022-08-17T19:03:16.403Z,1.80
2022-08-17T19:05:46.812Z,2.22
2022-08-17T19:08:33.030Z,1.77
2022-08-17T19:10:59.845Z,2.20
2022-08-17T19:14:00.795Z,1.77
2022-08-17T19:16:53.259Z,2.28
2022-08-17T19:19:32.309Z,1.70
2022-08-17T19:22:14.648Z,2.53
2022-08-17T19:25:03.581Z,2.30
2022-08-17T19:27:49.974Z,2.03
2022-08-17T19:30:17.129Z,2.03
2022-08-17T19:32:43.968Z,2.50
2022-08-17T19:35:17.135Z,2.72
2022-08-17T19:37:49.483Z,2.20
2022-08-17T19:40:51.660Z,2.47
2022-08-17T19:43:29.869Z,2.33
2022-08-17T19:46:14.843Z,3.38
2022-08-17T19:49:03.774Z,3.00
2022-08-17T19:51:52.022Z,2.85
2022-08-17T19:54:28.086Z,3.67
2022-08-17T19:57:10.036Z,3.40
2022-08-17T20:00:02.644Z,3.70
2022-08-17T20:02:46.401Z,3.00
2022-08-17T20:06:08.740Z,4.15
2022-08-17T20:08:38.437Z,3.22
2022-08-17T20:11:24.764Z,3.70
2022-08-17T20:14:16.159Z,3.97
2022-08-17T20:16:43.484Z,4.18
2022-08-17T20:19:19.314Z,3.20
2022-08-17T20:22:09.862Z,4.43
2022-08-17T20:24:51.117Z,4.18
2022-08-17T20:27:31.707Z,3.72
2022-08-17T20:30:10.321Z,3.92
2022-08-17T20:32:55.561Z,3.75
2022-08-17T20:35:32.917Z,3.70
2022-08-17T20:38:02.244Z,3.83
2022-08-17T20:40:31.344Z,4.85
2022-08-17T20:42:59.464Z,4.38
2022-08-17T20:45:26.441Z,5.05
2022-08-17T20:48:30.483Z,4.57
2022-08-17T20:50:58.986Z,4.40
2022-08-17T20:53:47.739Z,4.25
2022-08-17T20:56:43.194Z,4.82
2022-08-17T20:59:31.574Z,3.88
2022-08-17T21:02:17.455Z,4.50
2022-08-17T21:04:54.865Z,4.22
2022-08-17T21:07:43.716Z,4.55
2022-08-17T21:10:13.924Z,5.13
2022-08-17T21:13:13.462Z,5.28
2022-08-17T21:15:52.334Z,5.25
2022-08-17T21:18:46.719Z,5.40
2022-08-17T21:21:31.093Z,5.53
2022-08-17T21:24:19.410Z,5.20
2022-08-17T21:27:08.314Z,5.85
2022-08-17T21:30:13.994Z,5.75
2022-08-17T21:33:20.511Z,7.40
2022-08-17T21:36:13.484Z,5.63
2022-08-17T21:39:08.782Z,5.18
2022-08-17T21:41:53.089Z,5.40
2022-08-17T21:44:27.793Z,5.10
2022-08-17T21:47:18.938Z,4.15
2022-08-17T21:49:46.312Z,4.85
2022-08-17T21:52:18.760Z,4.80
2022-08-17T21:54:56.011Z,5.38
2022-08-17T21:57:27.542Z,5.35
2022-08-17T21:59:57.742Z,4.97
2022-08-17T22:02:29.933Z,5.05
2022-08-17T22:05:08.904Z,5.07
2022-08-17T22:07:42.069Z,5.47
2022-08-17T22:10:33.080Z,4.57
2022-08-17T22:13:16.956Z,4.65
2022-08-17T22:15:48.074Z,5.05
2022-08-17T22:18:25.294Z,4.57
2022-08-17T22:20:55.658Z,4.55
2022-08-17T22:23:47.034Z,4.15
2022-08-17T22:26:16.280Z,4.30
2022-08-17T22:28:49.113Z,4.35
2022-08-17T22:31:22.102Z,5.00
2022-08-17T22:34:12.985Z,3.83
2022-08-17T22:36:42.099Z,4.43
2022-08-17T22:39:08.990Z,4.18
2022-08-17T22:41:51.001Z,4.25
2022-08-17T22:44:36.319Z,4.22
2022-08-17T22:47:30.893Z,3.47
2022-08-17T22:50:02.196Z,3.92
2022-08-17T22:52:56.405Z,4.07
2022-08-17T22:55:42.715Z,3.47
2022-08-17T22:58:31.029Z,3.70
2022-08-17T23:01:23.634Z,3.83
2022-08-17T23:04:29.450Z,3.93
2022-08-17T23:06:56.409Z,3.92
2022-08-17T23:09:23.714Z,4.00
2022-08-17T23:11:56.496Z,4.15
2022-08-17T23:14:23.373Z,4.00
2022-08-17T23:16:50.884Z,3.55
2022-08-17T23:19:21.498Z,4.20
2022-08-17T23:21:50.454Z,3.78
2022-08-17T23:24:25.147Z,4.60
2022-08-17T23:26:52.859Z,3.70
2022-08-17T23:29:21.476Z,4.07
2022-08-17T23:31:49.608Z,3.53
2022-08-17T23:34:18.672Z,4.68
2022-08-17T23:36:52.569Z,3.38
2022-08-17T23:39:27.336Z,3.20
2022-08-17T23:41:59.017Z,3.25
2022-08-17T23:44:26.769Z,3.58
2022-08-17T23:46:54.587Z,3.83
2022-08-17T23:49:21.451Z,4.07
2022-08-17T23:51:49.114Z,3.80
2022-08-17T23:54:21.564Z,3.45
2022-08-17T23:56:48.514Z,3.55
2022-08-17T23:59:17.265Z,3.13
